createdAt,value
2018-07-23T00:00:09.970Z,14.37
2018-07-23T00:02:41.208Z,11.20
2018-07-23T00:05:09.335Z,8.90
2018-07-23T00:07:41.974Z,9.77
2018-07-23T00:10:10.367Z,12.17
2018-07-23T00:12:43.969Z,11.53
2018-07-23T00:15:12.344Z,9.83
2018-07-23T00:17:40.958Z,11.83
2018-07-23T00:20:09.137Z,11.43
2018-07-23T00:22:37.335Z,13.97
2018-07-23T00:25:05.798Z,12.93
2018-07-23T00:27:34.138Z,11.73
2018-07-23T00:30:02.333Z,8.87
2018-07-23T00:32:31.002Z,11.40
2018-07-23T00:41:37.956Z,11.07
2018-07-23T00:44:06.362Z,11.07
2018-07-23T00:46:34.962Z,10.57
2018-07-23T00:49:06.352Z,13.20
2018-07-23T00:51:34.770Z,11.73
2018-07-23T00:54:08.478Z,10.43
2018-07-23T00:56:37.214Z,16.47
2018-07-23T00:59:10.295Z,9.50
2018-07-23T01:01:38.739Z,9.30
2018-07-23T01:04:06.971Z,11.17
2018-07-23T01:06:35.829Z,10.80
2018-07-23T01:09:05.922Z,13.53
2018-07-23T01:11:34.411Z,13.43
2018-07-23T01:14:02.563Z,14.70
2018-07-23T01:16:31.050Z,12.13
2018-07-23T01:18:59.424Z,12.23
2018-07-23T01:21:27.814Z,13.00
2018-07-23T01:23:56.271Z,12.03
2018-07-23T01:26:24.472Z,11.60
2018-07-23T01:28:52.611Z,13.73
2018-07-23T01:31:34.383Z,13.23
2018-07-23T01:34:02.538Z,13.80
2018-07-23T01:36:31.191Z,14.47
2018-07-23T01:38:59.362Z,12.90
2018-07-23T01:41:31.055Z,11.63
2018-07-23T01:43:59.683Z,12.27
2018-07-23T01:46:35.712Z,13.53
2018-07-23T01:49:03.885Z,12.27
2018-07-23T01:51:36.964Z,12.83
2018-07-23T01:54:05.459Z,12.63
2018-07-23T01:56:37.874Z,12.17
2018-07-23T01:59:06.341Z,13.83
2018-07-23T02:01:34.501Z,14.00
2018-07-23T02:04:02.645Z,15.50
2018-07-23T02:06:31.175Z,11.47
2018-07-23T02:08:59.331Z,10.47
2018-07-23T02:11:27.486Z,12.70
2018-07-23T02:13:56.035Z,15.93
2018-07-23T02:16:24.442Z,13.83
2018-07-23T02:18:52.775Z,13.43
2018-07-23T02:21:21.260Z,14.23
2018-07-23T02:24:01.859Z,19.17
2018-07-23T02:26:30.750Z,12.37
2018-07-23T02:28:58.943Z,12.33
2018-07-23T02:31:27.415Z,14.23
2018-07-23T02:34:01.014Z,13.10
2018-07-23T02:36:29.179Z,12.43
2018-07-23T02:39:01.654Z,13.80
2018-07-23T02:41:29.787Z,12.83
2018-07-23T02:43:57.928Z,15.10
2018-07-23T02:46:26.408Z,12.17
2018-07-23T02:48:54.557Z,11.07
2018-07-23T02:51:22.691Z,11.87
2018-07-23T02:53:51.244Z,14.77
2018-07-23T02:56:19.407Z,13.73
2018-07-23T02:58:47.563Z,12.57
2018-07-23T03:01:16.135Z,11.53
2018-07-23T03:03:45.350Z,15.07
2018-07-23T03:06:16.635Z,13.90
2018-07-23T03:08:45.498Z,13.97
2018-07-23T03:11:17.423Z,13.37
2018-07-23T03:13:45.596Z,13.77
2018-07-23T03:16:14.486Z,15.63
2018-07-23T03:18:42.958Z,15.63
2018-07-23T03:21:11.853Z,12.80
2018-07-23T03:23:40.710Z,14.80
2018-07-23T03:26:09.339Z,16.20
2018-07-23T03:28:38.695Z,13.47
2018-07-23T03:31:07.347Z,14.03
2018-07-23T03:33:35.790Z,15.63
2018-07-23T03:36:04.060Z,15.23
2018-07-23T03:38:33.528Z,16.10
2018-07-23T03:41:02.661Z,15.23
2018-07-23T03:43:35.720Z,14.63
2018-07-23T03:46:04.296Z,13.57
2018-07-23T03:48:37.840Z,13.83
2018-07-23T03:51:06.524Z,13.43
2018-07-23T03:56:16.555Z,13.70
2018-07-23T03:58:45.134Z,15.37
2018-07-23T04:01:13.275Z,18.10
2018-07-23T04:03:48.654Z,14.57
2018-07-23T04:06:17.113Z,16.23
2018-07-23T04:08:48.847Z,16.17
2018-07-23T04:11:17.051Z,14.23
2018-07-23T04:13:50.515Z,13.93
2018-07-23T04:16:18.828Z,14.00
2018-07-23T04:18:46.960Z,15.30
2018-07-23T04:21:15.558Z,15.30
2018-07-23T04:23:43.866Z,17.30
2018-07-23T04:26:12.022Z,16.13
2018-07-23T04:28:40.414Z,12.90
2018-07-23T04:31:08.562Z,15.50
2018-07-23T04:33:37.119Z,14.67
2018-07-23T04:36:05.616Z,16.27
2018-07-23T04:38:33.960Z,17.10
2018-07-23T04:41:07.012Z,14.27
2018-07-23T04:43:35.849Z,17.23
2018-07-23T04:46:10.480Z,18.67
2018-07-23T04:48:39.122Z,13.83
2018-07-23T04:51:12.219Z,16.43
2018-07-23T04:53:40.362Z,16.10
2018-07-23T04:56:08.529Z,16.13
2018-07-23T04:58:37.814Z,16.73
2018-07-23T05:01:06.136Z,15.50
2018-07-23T05:03:34.366Z,16.53
2018-07-23T05:06:03.878Z,15.90
2018-07-23T05:08:32.728Z,17.07
2018-07-23T05:11:02.219Z,14.23
2018-07-23T05:13:30.837Z,16.27
2018-07-23T05:15:59.097Z,14.60
2018-07-23T05:18:27.237Z,17.27
2018-07-23T05:20:55.834Z,16.27
2018-07-23T05:23:29.298Z,15.90
2018-07-23T05:25:57.470Z,17.47
2018-07-23T05:28:30.260Z,15.70
2018-07-23T05:31:00.251Z,14.20
2018-07-23T05:33:33.247Z,16.57
2018-07-23T05:36:01.696Z,15.40
2018-07-23T05:38:30.031Z,18.23
2018-07-23T05:41:05.191Z,14.13
2018-07-23T05:43:37.917Z,19.10
2018-07-23T05:46:06.243Z,14.83
2018-07-23T05:48:34.554Z,15.97
2018-07-23T05:51:02.994Z,17.67
2018-07-23T05:53:31.874Z,19.57
2018-07-23T05:56:00.064Z,20.17
2018-07-23T05:58:28.291Z,16.93
2018-07-23T06:00:56.480Z,17.93
2018-07-23T06:03:25.002Z,17.87
2018-07-23T06:05:53.189Z,17.67
2018-07-23T06:08:21.809Z,15.90
2018-07-23T06:10:54.909Z,19.73
2018-07-23T06:13:23.134Z,17.93
2018-07-23T06:15:55.863Z,17.97
2018-07-23T06:18:24.514Z,16.10
2018-07-23T06:20:52.668Z,15.90
2018-07-23T06:23:20.810Z,16.17
2018-07-23T06:25:49.735Z,16.70
2018-07-23T06:28:17.887Z,18.00
2018-07-23T06:30:46.035Z,16.83
2018-07-23T06:33:17.651Z,18.07
2018-07-23T06:35:45.834Z,18.67
2018-07-23T06:38:18.414Z,15.13
2018-07-23T06:40:47.098Z,17.07
2018-07-23T06:43:15.373Z,17.53
2018-07-23T06:45:43.515Z,18.83
2018-07-23T06:48:16.846Z,18.30
2018-07-23T06:50:45.057Z,17.53
2018-07-23T06:53:27.403Z,18.17
2018-07-23T06:55:56.178Z,16.67
2018-07-23T06:58:24.318Z,15.07
2018-07-23T07:00:52.462Z,16.23
2018-07-23T07:03:23.644Z,15.20
2018-07-23T07:05:51.704Z,16.30
2018-07-23T07:08:24.658Z,17.53
2018-07-23T07:10:53.549Z,14.30
2018-07-23T07:13:26.471Z,17.00
2018-07-23T07:15:57.109Z,15.00
2018-07-23T07:18:29.727Z,18.40
2018-07-23T07:20:58.240Z,14.35
2018-07-23T07:23:32.648Z,14.28
2018-07-23T07:26:05.355Z,15.28
2018-07-23T07:28:38.677Z,15.10
2018-07-23T07:31:06.940Z,14.10
2018-07-23T07:33:43.457Z,17.10
2018-07-23T07:36:12.419Z,16.27
2018-07-23T07:38:44.051Z,15.93
2018-07-23T07:41:12.490Z,16.07
2018-07-23T07:43:44.130Z,12.68
2018-07-23T07:46:13.752Z,14.05
2018-07-23T07:48:48.036Z,19.85
2018-07-23T07:51:16.551Z,14.75
2018-07-23T07:53:49.649Z,12.70
2018-07-23T07:56:18.135Z,14.15
2018-07-23T07:58:52.230Z,14.05
2018-07-23T08:01:22.055Z,15.90
2018-07-23T08:03:54.653Z,13.28
2018-07-23T08:06:23.062Z,15.58
2018-07-23T08:08:53.073Z,15.72
2018-07-23T08:11:28.315Z,15.78
2018-07-23T08:14:08.551Z,15.00
2018-07-23T08:19:12.727Z,16.20
2018-07-23T08:21:41.261Z,16.42
2018-07-23T08:24:10.470Z,18.67
2018-07-23T08:26:39.552Z,16.87
2018-07-23T08:29:12.287Z,14.05
2018-07-23T08:31:41.278Z,14.63
2018-07-23T08:34:17.687Z,17.17
2018-07-23T08:36:46.167Z,17.17
2018-07-23T08:39:18.444Z,17.52
2018-07-23T08:41:49.929Z,17.30
2018-07-23T08:44:19.649Z,13.75
2018-07-23T08:46:48.754Z,12.30
2018-07-23T08:49:21.523Z,15.13
2018-07-23T08:51:50.415Z,12.40
2018-07-23T08:54:29.243Z,14.85
2018-07-23T08:56:59.641Z,12.55
2018-07-23T08:59:29.411Z,11.78
2018-07-23T09:01:57.631Z,14.45
2018-07-23T09:04:31.432Z,17.77
2018-07-23T09:06:59.621Z,14.87
2018-07-23T09:09:32.620Z,17.48
2018-07-23T09:12:05.221Z,16.45
2018-07-23T09:14:33.552Z,17.48
2018-07-23T09:17:05.035Z,13.40
2018-07-23T09:19:36.491Z,16.20
2018-07-23T09:22:06.670Z,16.17
2018-07-23T09:24:39.124Z,14.50
2018-07-23T09:27:08.776Z,19.17
2018-07-23T09:29:42.492Z,20.17
2018-07-23T09:32:16.680Z,18.77
2018-07-23T09:34:46.178Z,19.73
2018-07-23T09:37:15.517Z,16.80
2018-07-23T09:39:48.662Z,15.25
2018-07-23T09:42:18.252Z,16.07
2018-07-23T09:44:49.701Z,13.70
2018-07-23T09:47:18.110Z,16.55
2018-07-23T09:49:53.700Z,12.50
2018-07-23T09:52:21.951Z,13.80
2018-07-23T09:55:02.583Z,17.07
2018-07-23T09:57:31.157Z,19.15
2018-07-23T09:59:59.463Z,16.23
2018-07-23T10:02:28.085Z,13.95
2018-07-23T10:05:09.635Z,11.18
2018-07-23T10:07:38.296Z,14.50
2018-07-23T10:10:06.861Z,15.60
2018-07-23T10:12:38.568Z,16.87
2018-07-23T10:15:06.851Z,15.45
2018-07-23T10:17:35.810Z,12.93
2018-07-23T10:20:08.983Z,13.43
2018-07-23T10:22:39.259Z,14.05
2018-07-23T10:25:14.027Z,10.53
2018-07-23T10:27:44.535Z,11.68
2018-07-23T10:30:16.331Z,11.83
2018-07-23T10:32:44.497Z,17.05
2018-07-23T10:35:16.758Z,15.78
2018-07-23T10:37:45.023Z,15.68
2018-07-23T10:40:17.672Z,11.10
2018-07-23T10:42:46.553Z,11.45
2018-07-23T10:45:15.030Z,12.73
2018-07-23T10:47:46.032Z,9.23
2018-07-23T10:50:16.048Z,12.13
2018-07-23T10:52:44.352Z,10.15
2018-07-23T10:55:12.966Z,11.28
2018-07-23T10:57:42.412Z,13.88
2018-07-23T11:00:11.196Z,13.70
2018-07-23T11:02:40.160Z,8.68
2018-07-23T11:05:11.095Z,9.25
2018-07-23T11:07:39.298Z,6.67
2018-07-23T11:10:08.755Z,12.80
2018-07-23T11:12:38.038Z,10.38
2018-07-23T11:15:09.575Z,9.23
2018-07-23T11:17:40.398Z,10.48
2018-07-23T11:20:11.623Z,10.35
2018-07-23T11:22:41.743Z,8.33
2018-07-23T11:25:39.088Z,10.75
2018-07-23T11:27:51.725Z,11.43
2018-07-23T11:30:21.411Z,8.00
2018-07-23T11:32:50.765Z,9.10
2018-07-23T11:35:18.926Z,11.63
2018-07-23T11:37:51.566Z,11.97
2018-07-23T11:40:20.804Z,10.60
2018-07-23T11:42:55.798Z,9.33
2018-07-23T11:45:25.483Z,11.75
2018-07-23T11:47:54.832Z,9.13
2018-07-23T11:50:23.354Z,10.63
2018-07-23T11:53:03.888Z,7.40
2018-07-23T11:55:33.528Z,7.17
2018-07-23T11:58:02.580Z,9.00
2018-07-23T12:00:31.387Z,8.98
2018-07-23T12:03:03.072Z,7.90
2018-07-23T12:05:32.362Z,9.08
2018-07-23T12:08:06.100Z,7.08
2018-07-23T12:10:34.872Z,8.50
2018-07-23T12:13:08.651Z,7.17
2018-07-23T12:18:13.982Z,7.28
2018-07-23T12:20:42.843Z,6.42
2018-07-23T12:23:16.023Z,6.85
2018-07-23T12:25:44.892Z,8.88
2018-07-23T12:28:20.894Z,6.30
2018-07-23T12:30:50.741Z,7.53
2018-07-23T12:33:19.807Z,6.60
2018-07-23T12:35:48.726Z,6.12
2018-07-23T12:38:25.252Z,6.28
2018-07-23T12:40:54.171Z,4.78
2018-07-23T12:43:25.671Z,7.40
2018-07-23T12:45:54.479Z,7.53
2018-07-23T12:48:27.219Z,6.60
2018-07-23T12:50:56.838Z,5.10
2018-07-23T12:53:33.630Z,7.30
2018-07-23T12:56:01.812Z,7.50
2018-07-23T12:58:33.467Z,8.70
2018-07-23T13:01:02.569Z,7.80
2018-07-23T13:03:36.965Z,9.28
2018-07-23T13:06:05.395Z,7.47
2018-07-23T13:08:40.151Z,7.30
2018-07-23T13:11:08.400Z,8.00
2018-07-23T13:13:41.573Z,7.53
2018-07-23T13:16:10.278Z,10.50
2018-07-23T13:18:43.773Z,7.00
2018-07-23T13:21:12.542Z,6.72
2018-07-23T13:23:53.853Z,5.87
2018-07-23T13:26:22.342Z,5.60
2018-07-23T13:28:51.159Z,4.40
2018-07-23T13:31:21.508Z,7.90
2018-07-23T13:33:53.244Z,9.48
2018-07-23T13:36:22.143Z,5.70
2018-07-23T13:38:56.147Z,6.12
2018-07-23T13:41:24.615Z,6.97
2018-07-23T13:44:07.175Z,8.35
2018-07-23T13:46:37.939Z,5.97
2018-07-23T13:49:10.360Z,5.72
2018-07-23T13:51:42.351Z,8.63
2018-07-23T13:54:12.534Z,9.58
2018-07-23T13:56:43.480Z,5.25
2018-07-23T13:59:14.635Z,5.45
2018-07-23T14:01:44.459Z,6.35
2018-07-23T14:04:12.714Z,7.17
2018-07-23T14:06:42.890Z,5.75
2018-07-23T14:09:12.627Z,6.58
2018-07-23T14:11:41.144Z,7.08
2018-07-23T14:14:14.831Z,8.40
2018-07-23T14:16:43.022Z,6.40
2018-07-23T14:19:19.267Z,7.67
2018-07-23T14:21:47.441Z,5.75
2018-07-23T14:24:28.260Z,8.35
2018-07-23T14:26:56.691Z,5.83
2018-07-23T14:29:26.186Z,7.85
2018-07-23T14:31:56.407Z,7.42
2018-07-23T14:34:24.898Z,9.23
2018-07-23T14:36:53.359Z,8.18
2018-07-23T14:39:26.637Z,8.90
2018-07-23T14:41:55.051Z,9.30
2018-07-23T14:44:29.607Z,7.67
2018-07-23T14:46:59.166Z,7.37
2018-07-23T14:49:33.229Z,7.17
2018-07-23T14:52:01.532Z,7.08
2018-07-23T14:54:39.551Z,6.33
2018-07-23T14:57:08.236Z,8.00
2018-07-23T14:59:38.333Z,6.33
2018-07-23T15:02:06.582Z,6.05
2018-07-23T15:04:49.142Z,8.05
2018-07-23T15:07:17.780Z,5.75
2018-07-23T15:09:46.596Z,8.10
2018-07-23T15:12:15.446Z,11.53
2018-07-23T15:14:45.377Z,5.78
2018-07-23T15:17:14.214Z,11.50
2018-07-23T15:19:47.194Z,10.40
2018-07-23T15:22:15.660Z,8.20
2018-07-23T15:27:26.414Z,7.15
2018-07-23T15:29:55.714Z,8.43
2018-07-23T15:32:24.553Z,5.78
2018-07-23T15:35:00.168Z,8.73
2018-07-23T15:37:28.315Z,7.10
2018-07-23T15:40:10.747Z,6.20
2018-07-23T15:42:40.383Z,9.50
2018-07-23T15:45:10.632Z,9.28
2018-07-23T15:47:40.524Z,11.03
2018-07-23T15:50:10.664Z,5.45
2018-07-23T15:52:38.914Z,7.53
2018-07-23T15:55:23.549Z,7.78
2018-07-23T15:57:52.562Z,9.13
2018-07-23T16:00:20.966Z,6.95
2018-07-23T16:02:49.563Z,6.53
2018-07-23T16:05:18.833Z,5.83
2018-07-23T16:07:47.161Z,5.92
2018-07-23T16:10:18.541Z,8.13
2018-07-23T16:12:47.172Z,8.13
2018-07-23T16:15:21.296Z,8.20
2018-07-23T16:17:49.791Z,6.35
2018-07-23T16:20:25.972Z,6.62
2018-07-23T16:22:54.387Z,7.03
2018-07-23T16:25:26.117Z,9.53
2018-07-23T16:27:54.261Z,7.00
2018-07-23T16:30:33.067Z,5.92
2018-07-23T16:33:05.510Z,6.53
2018-07-23T16:35:34.063Z,5.28
2018-07-23T16:38:02.819Z,5.42
2018-07-23T16:40:33.478Z,5.78
2018-07-23T16:43:02.289Z,6.92
2018-07-23T16:45:43.642Z,5.40
2018-07-23T16:48:12.105Z,7.30
2018-07-23T16:50:40.610Z,5.12
2018-07-23T16:53:09.552Z,6.75
2018-07-23T16:55:43.175Z,8.70
2018-07-23T17:00:45.594Z,5.28
2018-07-23T17:03:14.340Z,5.22
2018-07-23T17:05:57.588Z,8.25
2018-07-23T17:08:25.784Z,6.87
2018-07-23T17:10:54.000Z,5.50
2018-07-23T17:13:23.588Z,5.60
2018-07-23T17:15:54.519Z,6.53
2018-07-23T17:18:25.482Z,6.28
2018-07-23T17:20:55.998Z,7.33
2018-07-23T17:23:25.013Z,7.53
2018-07-23T17:25:57.926Z,5.85
2018-07-23T17:28:27.021Z,5.75
2018-07-23T17:31:01.463Z,7.28
2018-07-23T17:33:30.786Z,8.20
2018-07-23T17:36:05.844Z,5.33
2018-07-23T17:38:34.107Z,5.58
2018-07-23T17:41:26.556Z,5.37
2018-07-23T17:43:55.374Z,5.03
2018-07-23T17:46:23.666Z,7.00
2018-07-23T17:48:51.863Z,5.17
2018-07-23T17:51:20.739Z,5.22
2018-07-23T17:53:50.360Z,4.85
2018-07-23T17:56:19.089Z,5.90
2018-07-23T17:58:48.233Z,8.35
2018-07-23T18:01:19.048Z,5.80
2018-07-23T18:03:47.677Z,5.42
2018-07-23T18:06:29.464Z,5.80
2018-07-23T18:08:57.984Z,5.35
2018-07-23T18:11:26.414Z,8.90
2018-07-23T18:13:54.593Z,7.45
2018-07-23T18:16:25.969Z,5.78
2018-07-23T18:18:56.088Z,6.20
2018-07-23T18:21:28.201Z,5.40
2018-07-23T18:23:56.724Z,6.40
2018-07-23T18:26:37.636Z,4.92
2018-07-23T18:29:07.388Z,5.45
2018-07-23T18:31:35.764Z,9.70
2018-07-23T18:34:04.817Z,9.43
2018-07-23T18:36:35.770Z,6.20
2018-07-23T18:39:06.373Z,6.72
2018-07-23T18:41:40.377Z,6.35
2018-07-23T18:44:09.244Z,6.05
2018-07-23T18:46:40.847Z,5.53
2018-07-23T18:49:15.922Z,5.47
2018-07-23T18:51:48.658Z,8.10
2018-07-23T18:54:18.582Z,5.37
2018-07-23T18:56:49.666Z,5.00
2018-07-23T18:59:19.468Z,9.23
2018-07-23T19:01:51.276Z,10.00
2018-07-23T19:04:19.519Z,5.45
2018-07-23T19:06:51.713Z,8.73
2018-07-23T19:09:23.568Z,8.60
2018-07-23T19:11:56.155Z,5.45
2018-07-23T19:14:24.671Z,8.45
2018-07-23T19:16:58.278Z,7.12
2018-07-23T19:19:26.612Z,12.13
2018-07-23T19:22:00.149Z,6.12
2018-07-23T19:24:39.532Z,10.43
2018-07-23T19:27:09.478Z,18.27
2018-07-23T19:29:37.925Z,13.60
2018-07-23T19:32:07.252Z,15.65
2018-07-23T19:34:36.490Z,8.35
2018-07-23T19:37:13.149Z,10.67
2018-07-23T19:39:43.607Z,8.93
2018-07-23T19:42:14.054Z,11.12
2018-07-23T19:44:46.810Z,7.72
2018-07-23T19:47:15.340Z,7.80
2018-07-23T19:49:46.059Z,11.23
2018-07-23T19:52:18.792Z,11.10
2018-07-23T19:54:49.242Z,6.65
2018-07-23T19:57:23.446Z,10.50
2018-07-23T19:59:52.829Z,9.00
2018-07-23T20:02:23.750Z,9.33
2018-07-23T20:04:51.993Z,7.67
2018-07-23T20:07:34.417Z,8.73
2018-07-23T20:10:03.113Z,10.17
2018-07-23T20:12:33.953Z,5.93
2018-07-23T20:15:02.573Z,8.33
2018-07-23T20:17:32.192Z,6.37
2018-07-23T20:20:02.099Z,8.33
2018-07-23T20:22:34.566Z,11.83
2018-07-23T20:25:04.929Z,9.07
2018-07-23T20:27:36.567Z,8.30
2018-07-23T20:30:05.802Z,8.75
2018-07-23T20:32:39.806Z,9.07
2018-07-23T20:35:08.961Z,6.83
2018-07-23T20:37:50.597Z,9.33
2018-07-23T20:40:19.167Z,8.73
2018-07-23T20:42:47.510Z,7.83
2018-07-23T20:45:16.323Z,8.10
2018-07-23T20:47:47.514Z,9.60
2018-07-23T20:50:16.025Z,7.27
2018-07-23T20:52:58.527Z,10.50
2018-07-23T20:55:27.062Z,7.57
2018-07-23T20:57:56.501Z,8.57
2018-07-23T21:00:26.363Z,10.40
2018-07-23T21:02:55.481Z,7.93
2018-07-23T21:05:24.156Z,8.90
2018-07-23T21:08:05.464Z,9.37
2018-07-23T21:10:35.013Z,9.20
2018-07-23T21:13:05.210Z,8.63
2018-07-23T21:15:35.380Z,7.97
2018-07-23T21:18:03.942Z,10.97
2018-07-23T21:20:32.191Z,10.97
2018-07-23T21:23:06.004Z,12.57
2018-07-23T21:25:34.563Z,8.07
2018-07-23T21:30:37.995Z,8.33
2018-07-23T21:33:12.001Z,10.83
2018-07-23T21:35:40.682Z,11.43
2018-07-23T21:38:15.611Z,9.63
2018-07-23T21:40:44.072Z,10.50
2018-07-23T21:43:24.662Z,8.90
2018-07-23T21:45:54.620Z,11.10
2018-07-23T21:48:24.373Z,9.03
2018-07-23T21:50:58.567Z,8.67
2018-07-23T21:53:29.540Z,8.83
2018-07-23T21:55:58.440Z,9.53
2018-07-23T21:58:26.624Z,10.27
2018-07-23T22:00:57.630Z,9.53
2018-07-23T22:03:26.008Z,8.20
2018-07-23T22:05:54.176Z,9.07
2018-07-23T22:08:35.348Z,11.03
2018-07-23T22:11:04.661Z,12.97
2018-07-23T22:13:33.349Z,9.53
2018-07-23T22:16:02.750Z,9.70
2018-07-23T22:18:34.417Z,9.70
2018-07-23T22:21:03.451Z,11.63
2018-07-23T22:23:44.658Z,10.43
2018-07-23T22:26:14.684Z,11.83
2018-07-23T22:28:44.471Z,9.23
2018-07-23T22:31:12.687Z,9.60
2018-07-23T22:33:44.240Z,11.20
2018-07-23T22:36:13.769Z,9.63
2018-07-23T22:38:45.460Z,11.47
2018-07-23T22:41:15.690Z,9.77
2018-07-23T22:43:47.961Z,14.60
2018-07-23T22:46:17.379Z,12.67
2018-07-23T22:49:02.213Z,10.77
2018-07-23T22:51:32.170Z,11.13
2018-07-23T22:54:00.651Z,12.50
2018-07-23T22:56:29.290Z,11.30
2018-07-23T22:58:57.891Z,12.13
2018-07-23T23:01:28.553Z,11.50
2018-07-23T23:04:01.208Z,10.53
2018-07-23T23:06:30.335Z,11.43
2018-07-23T23:09:03.162Z,11.43
2018-07-23T23:11:32.885Z,10.57
2018-07-23T23:14:04.811Z,13.00
2018-07-23T23:16:34.249Z,15.47
2018-07-23T23:19:10.408Z,9.87
2018-07-23T23:21:38.615Z,13.70
2018-07-23T23:24:12.400Z,11.70
2018-07-23T23:26:41.365Z,10.90
2018-07-23T23:29:13.449Z,13.90
2018-07-23T23:31:43.339Z,9.50
2018-07-23T23:34:24.552Z,13.43
2018-07-23T23:36:53.270Z,12.27
2018-07-23T23:39:21.455Z,10.00
2018-07-23T23:41:49.823Z,11.70
2018-07-23T23:44:20.204Z,11.33
2018-07-23T23:46:48.368Z,9.70
2018-07-23T23:49:21.329Z,11.27
2018-07-23T23:51:49.982Z,9.87
2018-07-23T23:54:18.214Z,12.00
2018-07-23T23:56:46.427Z,13.53
2018-07-23T23:59:15.760Z,11.70
